Time;durP1;ratioP1;P1;durP2;ratioP2;P2;SDS_P1;SDS_P2;PMS_P1;PMS_P2;Temp;Humidity;BMP_temperature;BMP_pressure;BME280_temperature;BME280_humidity;BME280_pressure;Samples;Min_cycle;Max_cycle;Signal;HPM_P1;HPM_P2
2022/08/01 00:02:20;;;;;;;3.70;2.95;;;;;;;20.88;47.51;95756.84;4988021;28;20200;-78
2022/08/01 00:04:46;;;;;;;3.15;2.67;;;;;;;20.83;47.78;95756.63;4993769;28;20192;-78
2022/08/01 00:07:11;;;;;;;2.95;2.65;;;;;;;20.88;47.46;95756.03;4991584;28;20173;-77
2022/08/01 00:09:36;;;;;;;3.20;2.78;;;;;;;20.81;47.81;95756.03;4996304;28;20482;-78
2022/08/01 00:12:02;;;;;;;3.00;2.80;;;;;;;20.76;48.27;95755.03;5001300;28;20182;-77
2022/08/01 00:14:27;;;;;;;2.67;2.47;;;;;;;20.75;48.16;95766.59;4977359;28;20208;-79
2022/08/01 00:16:52;;;;;;;3.47;3.10;;;;;;;20.69;48.50;95759.53;4972432;28;20188;-80
2022/08/01 00:19:17;;;;;;;2.95;2.75;;;;;;;20.67;48.41;95749.16;4982328;28;20192;-79
2022/08/01 00:21:43;;;;;;;2.95;2.70;;;;;;;20.59;49.07;95758.13;4974006;28;20231;-79
2022/08/01 00:24:08;;;;;;;3.13;2.60;;;;;;;20.56;49.22;95753.22;4959394;28;20214;-79
2022/08/01 00:26:33;;;;;;;4.18;2.90;;;;;;;20.57;49.60;95759.31;4976986;28;20196;-81
2022/08/01 00:28:59;;;;;;;3.95;2.80;;;;;;;20.60;49.36;95758.91;4982608;28;20207;-80
2022/08/01 00:31:24;;;;;;;4.45;2.90;;;;;;;20.60;49.77;95761.56;4974150;28;20192;-79
2022/08/01 00:33:49;;;;;;;3.88;2.58;;;;;;;20.60;49.68;95765.00;4968776;28;20557;-80
2022/08/01 00:36:15;;;;;;;2.90;2.50;;;;;;;20.50;50.12;95761.16;4967453;28;20184;-79
2022/08/01 00:38:40;;;;;;;2.83;2.63;;;;;;;20.46;50.44;95755.47;4978063;28;20656;-79
2022/08/01 00:41:05;;;;;;;3.72;2.90;;;;;;;20.40;51.14;95761.50;4967414;28;20324;-79
2022/08/01 00:43:31;;;;;;;3.35;2.50;;;;;;;20.44;51.17;95765.41;4954179;28;20255;-79
2022/08/01 00:45:56;;;;;;;5.07;2.97;;;;;;;20.43;51.09;95763.81;4966559;28;20550;-80
2022/08/01 00:48:21;;;;;;;3.70;2.70;;;;;;;20.34;51.57;95762.34;4969510;28;20188;-79
2022/08/01 00:50:47;;;;;;;2.90;2.70;;;;;;;20.39;51.73;95767.81;4968406;28;20602;-79
2022/08/01 00:53:12;;;;;;;3.53;2.58;;;;;;;20.43;51.99;95762.97;4968616;28;20209;-79
2022/08/01 00:55:37;;;;;;;2.40;2.22;;;;;;;20.46;51.52;95765.22;4969851;28;20656;-79
2022/08/01 00:58:03;;;;;;;4.90;3.20;;;;;;;20.42;51.83;95756.88;4986051;28;20671;-79
2022/08/01 01:00:28;;;;;;;3.95;2.83;;;;;;;20.40;52.18;95758.88;4985156;28;20207;-80
2022/08/01 01:02:54;;;;;;;2.80;2.60;;;;;;;20.29;52.80;95762.13;4991306;28;20208;-79
2022/08/01 01:05:19;;;;;;;3.22;2.72;;;;;;;20.25;53.22;95766.22;4956119;28;20279;-78
2022/08/01 01:08:02;;;;;;;3.28;3.03;;;;;;;20.24;53.61;95751.41;4953703;28;20680;-80
2022/08/01 01:10:32;;;;;;;3.70;2.72;;;;;;;20.34;53.63;95765.00;4972249;28;20183;-79
2022/08/01 01:13:11;;;;;;;2.97;2.67;;;;;;;20.31;53.43;95758.28;4968429;28;20672;-79
2022/08/01 01:15:45;;;;;;;4.60;2.95;;;;;;;20.20;54.22;95764.16;4973423;28;20639;-79
2022/08/01 01:18:23;;;;;;;3.22;2.70;;;;;;;20.26;53.89;95767.81;4971577;28;20193;-79
2022/08/01 01:20:59;;;;;;;4.70;3.13;;;;;;;20.20;54.52;95758.06;4961314;28;20220;-80
2022/08/01 01:23:44;;;;;;;3.28;2.60;;;;;;;20.09;55.67;95762.94;4952855;28;20662;-80
2022/08/01 01:26:47;;;;;;;4.25;3.00;;;;;;;20.09;56.25;95762.94;4971339;28;20227;-80
2022/08/01 01:29:16;;;;;;;3.38;2.38;;;;;;;20.13;56.14;95759.88;4991238;28;20206;-80
2022/08/01 01:32:18;;;;;;;3.03;2.50;;;;;;;20.15;55.92;95766.59;4965876;28;20183;-80
2022/08/01 01:34:44;;;;;;;4.28;3.08;;;;;;;20.12;56.07;95764.34;4965419;28;20342;-80
2022/08/01 01:37:13;;;;;;;2.70;2.50;;;;;;;20.07;56.73;95764.97;4988906;28;20651;-80
2022/08/01 01:39:41;;;;;;;2.83;2.60;;;;;;;19.98;57.04;95765.38;4973335;28;20180;-80
2022/08/01 01:42:06;;;;;;;3.17;2.50;;;;;;;19.91;57.43;95760.06;4955293;28;20219;-78
2022/08/01 01:44:32;;;;;;;2.70;2.50;;;;;;;19.97;57.02;95772.47;4979985;28;20278;-80
2022/08/01 01:46:59;;;;;;;2.78;2.53;;;;;;;19.80;58.20;95769.38;4969982;28;20195;-80
2022/08/01 01:49:26;;;;;;;3.60;2.60;;;;;;;19.90;57.82;95770.81;4971783;28;20202;-79
2022/08/01 01:51:53;;;;;;;2.78;2.58;;;;;;;19.88;58.04;95770.19;4980049;28;20184;-80
2022/08/01 01:54:19;;;;;;;3.50;2.63;;;;;;;19.86;57.94;95775.66;4945831;28;20277;-79
2022/08/01 01:56:51;;;;;;;2.97;2.63;;;;;;;19.83;58.64;95770.81;4978202;28;20219;-80
2022/08/01 01:59:20;;;;;;;2.58;2.38;;;;;;;19.79;58.73;95775.66;4988377;28;20184;-79
2022/08/01 02:01:47;;;;;;;2.90;2.70;;;;;;;19.79;58.66;95773.03;4971123;28;20232;-80
2022/08/01 02:04:12;;;;;;;2.88;2.58;;;;;;;19.77;58.70;95774.22;4968425;28;20251;-79
2022/08/01 02:06:38;;;;;;;3.55;2.90;;;;;;;19.74;59.32;95769.38;4969981;28;20282;-80
2022/08/01 02:09:04;;;;;;;3.05;2.45;;;;;;;19.73;59.99;95773.00;4969756;28;20207;-78
2022/08/01 02:11:30;;;;;;;2.92;2.60;;;;;;;19.67;60.18;95768.53;4969696;28;20181;-79
2022/08/01 02:13:58;;;;;;;5.72;3.10;;;;;;;19.54;60.33;95777.19;4970502;28;21032;-80
2022/08/01 02:16:26;;;;;;;3.33;2.22;;;;;;;19.57;60.41;95773.38;4977628;28;20266;-79
2022/08/01 02:18:51;;;;;;;4.47;3.50;;;;;;;19.44;61.30;95774.94;4996718;28;20220;-80
2022/08/01 02:21:22;;;;;;;3.45;2.80;;;;;;;19.47;61.26;95777.16;4975124;28;20270;-79
2022/08/01 02:23:48;;;;;;;2.38;2.17;;;;;;;19.51;60.99;95775.72;4973921;28;20730;-78
2022/08/01 02:26:14;;;;;;;4.28;2.60;;;;;;;19.47;61.37;95779.78;4972391;28;20192;-80
2022/08/01 02:29:02;;;;;;;3.30;2.72;;;;;;;19.46;61.61;95780.81;4973909;28;20633;-80
2022/08/01 02:31:30;;;;;;;2.65;2.45;;;;;;;19.44;61.71;95779.38;4984524;28;20180;-77
2022/08/01 02:34:02;;;;;;;2.78;2.45;;;;;;;19.46;61.12;95782.63;4991178;28;20193;-78
2022/08/01 02:36:28;;;;;;;3.85;2.55;;;;;;;19.50;61.48;95784.66;4992554;28;20164;-78
2022/08/01 02:38:56;;;;;;;2.40;2.20;;;;;;;19.46;61.51;95783.44;4989225;28;20287;-79
2022/08/01 02:41:22;;;;;;;2.65;2.45;;;;;;;19.37;62.35;95784.63;4960572;28;20736;-80
2022/08/01 02:43:50;;;;;;;5.15;2.13;;;;;;;19.29;63.08;95784.78;4960849;28;20246;-81
2022/08/01 02:46:20;;;;;;;4.53;2.45;;;;;;;19.24;63.49;95777.44;4978738;28;20668;-80
2022/08/01 02:48:46;;;;;;;2.90;2.35;;;;;;;19.25;62.98;95783.53;4978341;28;20195;-81
2022/08/01 02:51:11;;;;;;;3.13;2.20;;;;;;;19.27;63.55;95780.72;4960966;28;20188;-81
2022/08/01 02:53:38;;;;;;;2.53;2.10;;;;;;;19.16;63.67;95784.69;4974265;28;20250;-79
2022/08/01 02:56:05;;;;;;;2.85;2.50;;;;;;;19.18;63.51;95785.34;4961304;28;20262;-80
2022/08/01 02:58:31;;;;;;;2.85;2.50;;;;;;;19.13;64.06;95785.09;4976940;28;20188;-80
2022/08/01 03:00:57;;;;;;;3.72;2.80;;;;;;;19.07;64.28;95773.53;4958630;28;20216;-79
2022/08/01 03:03:24;;;;;;;2.90;2.08;;;;;;;19.10;64.21;95775.78;4975253;28;20216;-78
2022/08/01 03:05:49;;;;;;;4.15;2.08;;;;;;;19.02;64.79;95781.19;4976040;28;20180;-80
2022/08/01 03:08:15;;;;;;;3.67;2.30;;;;;;;19.09;64.83;95778.63;4974006;28;20188;-79
2022/08/01 03:10:42;;;;;;;3.33;2.30;;;;;;;19.06;64.58;95776.34;4977131;28;20180;-80
2022/08/01 03:13:08;;;;;;;2.90;2.60;;;;;;;19.00;65.47;95774.53;4982711;28;20687;-80
2022/08/01 03:15:37;;;;;;;3.85;2.40;;;;;;;18.94;65.86;95776.09;4973309;28;20212;-80
2022/08/01 03:18:05;;;;;;;2.50;2.30;;;;;;;18.94;65.84;95774.28;5000045;28;20207;-80
2022/08/01 03:20:32;;;;;;;2.72;2.47;;;;;;;18.82;66.27;95775.03;4975478;28;20663;-79
2022/08/01 03:22:59;;;;;;;2.47;2.28;;;;;;;18.90;65.19;95782.72;4974330;28;20211;-79
2022/08/01 03:25:25;;;;;;;2.78;2.55;;;;;;;18.81;66.12;95776.81;4998599;28;20184;-80
2022/08/01 03:27:55;;;;;;;3.60;2.42;;;;;;;18.76;66.36;95779.22;4975512;28;20288;-80
2022/08/01 03:30:22;;;;;;;2.53;2.20;;;;;;;18.77;66.70;95783.47;4962919;28;20215;-80
2022/08/01 03:32:47;;;;;;;3.17;2.30;;;;;;;18.68;67.09;95776.75;4993630;28;20593;-80
2022/08/01 03:35:13;;;;;;;3.97;2.50;;;;;;;18.65;67.22;95785.03;4976615;28;20183;-80
2022/08/01 03:37:42;;;;;;;4.20;2.20;;;;;;;18.80;66.43;95777.00;4971578;28;20264;-80
2022/08/01 03:40:20;;;;;;;2.60;2.10;;;;;;;18.70;67.67;95781.81;4980954;28;20306;-79
2022/08/01 03:43:07;;;;;;;3.97;2.25;;;;;;;18.73;67.22;95781.41;4983756;28;20199;-80
2022/08/01 03:45:38;;;;;;;3.15;2.50;;;;;;;18.73;67.21;95782.25;4994251;28;20180;-81
2022/08/01 03:48:19;;;;;;;3.10;2.15;;;;;;;18.73;67.13;95784.03;4967839;28;20682;-79
2022/08/01 03:50:50;;;;;;;3.50;2.15;;;;;;;18.70;67.61;95785.25;4978674;28;20184;-80
2022/08/01 03:53:15;;;;;;;3.70;2.42;;;;;;;18.57;68.63;95785.13;4975538;28;20294;-80
2022/08/01 03:55:43;;;;;;;2.75;2.50;;;;;;;18.64;68.29;95783.34;4956045;28;20224;-79
2022/08/01 03:58:09;;;;;;;2.30;2.13;;;;;;;18.68;67.96;95782.00;4967221;28;20190;-81
2022/08/01 04:00:38;;;;;;;2.47;1.90;;;;;;;18.67;67.86;95778.56;4972405;28;20209;-79
2022/08/01 04:03:04;;;;;;;4.38;2.47;;;;;;;18.63;68.20;95790.41;4956497;28;20223;-80
2022/08/01 04:05:31;;;;;;;2.47;2.28;;;;;;;18.60;68.51;95779.47;4973530;28;20188;-79
2022/08/01 04:07:56;;;;;;;3.03;2.55;;;;;;;18.60;68.86;95782.94;4980859;28;20199;-79
2022/08/01 04:10:25;;;;;;;2.55;2.20;;;;;;;18.70;68.88;95777.34;4971439;28;20180;-81
2022/08/01 04:12:51;;;;;;;3.50;2.05;;;;;;;18.64;69.28;95783.34;4981296;28;20208;-79
2022/08/01 04:15:16;;;;;;;2.05;1.95;;;;;;;18.78;68.84;95779.03;4971363;28;20228;-81
2022/08/01 04:17:41;;;;;;;2.22;2.03;;;;;;;18.80;68.63;95784.91;4971385;28;20192;-80
2022/08/01 04:20:07;;;;;;;2.00;1.90;;;;;;;18.77;68.90;95783.47;4981538;28;20212;-79
2022/08/01 04:22:33;;;;;;;2.40;2.05;;;;;;;18.89;68.34;95779.28;4955643;28;20212;-79
2022/08/01 04:25:00;;;;;;;2.50;2.13;;;;;;;18.84;68.69;95779.06;4970918;28;20220;-80
2022/08/01 04:27:31;;;;;;;3.17;1.90;;;;;;;19.00;68.21;95777.97;4965020;28;20195;-79
2022/08/01 04:29:58;;;;;;;2.10;1.90;;;;;;;19.03;68.13;95782.00;4971504;28;20188;-79
2022/08/01 04:32:25;;;;;;;2.35;2.15;;;;;;;19.02;68.38;95783.84;4992396;28;20204;-79
2022/08/01 04:34:50;;;;;;;2.97;2.38;;;;;;;19.21;67.49;95792.84;4954733;28;20559;-79
2022/08/01 04:37:16;;;;;;;4.60;1.90;;;;;;;19.24;67.76;95792.44;4968864;28;20208;-80
2022/08/01 04:39:42;;;;;;;2.05;1.85;;;;;;;19.27;67.51;95792.06;4953125;28;20275;-79
2022/08/01 04:42:08;;;;;;;2.20;1.90;;;;;;;19.48;66.79;95799.84;4975928;28;20187;-79
2022/08/01 04:44:33;;;;;;;2.15;1.92;;;;;;;19.55;66.86;95796.44;4960363;28;20187;-77
2022/08/01 04:47:03;;;;;;;2.00;1.80;;;;;;;19.57;66.57;95792.63;4963370;28;20250;-79
2022/08/01 04:49:31;;;;;;;1.85;1.75;;;;;;;19.51;67.08;95793.38;4970504;28;20187;-79
2022/08/01 04:51:59;;;;;;;2.08;1.88;;;;;;;19.79;65.90;95788.84;4977125;28;20665;-77
2022/08/01 04:54:29;;;;;;;3.30;1.88;;;;;;;21.70;58.42;95787.03;4968300;28;20184;-78
2022/08/01 04:56:59;;;;;;;2.15;1.90;;;;;;;23.90;51.65;95792.84;4968383;28;20328;-78
2022/08/01 04:59:40;;;;;;;2.45;1.70;;;;;;;24.60;48.03;95788.78;4952504;28;20192;-78
2022/08/01 05:02:12;;;;;;;1.83;1.70;;;;;;;25.65;44.97;95796.69;4955415;28;20532;-79
2022/08/01 05:04:39;;;;;;;1.73;1.50;;;;;;;26.97;41.49;95795.56;4974676;28;20191;-80
2022/08/01 05:07:05;;;;;;;14.80;3.20;;;;;;;26.93;40.98;95792.56;4967685;28;20185;-78
2022/08/01 05:09:31;;;;;;;2.40;1.77;;;;;;;28.17;38.46;95793.88;4969468;28;20187;-79
2022/08/01 05:11:58;;;;;;;1.95;1.70;;;;;;;29.67;34.87;95790.16;4973394;28;20287;-80
2022/08/01 05:14:27;;;;;;;1.92;1.73;;;;;;;27.53;38.95;95799.81;4966922;28;20200;-79
2022/08/01 05:16:52;;;;;;;2.50;1.60;;;;;;;27.90;38.46;95800.00;4969960;28;20559;-80
2022/08/01 05:19:17;;;;;;;1.90;1.70;;;;;;;28.08;37.98;95800.72;4972295;28;20188;-80
2022/08/01 05:21:43;;;;;;;1.52;1.42;;;;;;;28.31;37.38;95789.78;4967370;28;20216;-79
2022/08/01 05:24:08;;;;;;;1.48;1.38;;;;;;;28.37;37.72;95798.66;4968766;28;20208;-78
2022/08/01 05:26:34;;;;;;;2.22;1.83;;;;;;;28.59;36.81;95798.56;4959423;28;20611;-78
2022/08/01 05:28:59;;;;;;;2.03;1.45;;;;;;;29.02;36.30;95806.41;4967628;28;20235;-79
2022/08/01 05:31:25;;;;;;;3.38;1.70;;;;;;;29.18;36.27;95806.50;4968863;28;20184;-79
2022/08/01 05:33:50;;;;;;;2.00;1.50;;;;;;;29.71;35.17;95807.31;4965997;28;20256;-79
2022/08/01 05:36:15;;;;;;;1.63;1.52;;;;;;;29.50;35.13;95807.22;4983807;28;20184;-78
2022/08/01 05:38:41;;;;;;;2.65;1.40;;;;;;;30.58;33.32;95809.16;4961292;28;20652;-80
2022/08/01 05:41:06;;;;;;;1.67;1.35;;;;;;;29.39;35.50;95808.22;4966398;28;20211;-79
2022/08/01 05:43:31;;;;;;;3.05;1.42;;;;;;;28.88;36.81;95805.19;4967981;28;20710;-78
2022/08/01 05:45:58;;;;;;;2.13;1.30;;;;;;;28.98;36.52;95804.50;4976337;28;20195;-77
2022/08/01 05:48:23;;;;;;;3.72;1.65;;;;;;;29.76;35.20;95807.34;4967117;28;20236;-79
2022/08/01 05:50:49;;;;;;;2.72;1.40;;;;;;;29.03;35.99;95801.84;4992300;28;20602;-78
2022/08/01 05:53:14;;;;;;;1.35;1.25;;;;;;;29.55;34.83;95804.59;4976111;28;20697;-80
2022/08/01 05:55:40;;;;;;;3.83;1.70;;;;;;;30.31;34.25;95813.97;4965604;28;20192;-79
2022/08/01 05:58:05;;;;;;;2.58;1.88;;;;;;;29.91;34.62;95804.72;4950604;28;20189;-79
2022/08/01 06:00:30;;;;;;;2.65;1.30;;;;;;;30.46;33.68;95813.94;4985856;28;20212;-79
2022/08/01 06:02:56;;;;;;;3.15;1.30;;;;;;;31.12;32.63;95810.50;4979974;28;20817;-78
2022/08/01 06:05:21;;;;;;;2.15;1.55;;;;;;;30.42;33.41;95813.69;4970894;28;20199;-79
2022/08/01 06:07:46;;;;;;;2.03;1.33;;;;;;;31.52;31.28;95809.59;4998232;28;20215;-79
2022/08/01 06:10:12;;;;;;;2.15;1.30;;;;;;;30.49;33.54;95812.63;5000273;28;20172;-77
2022/08/01 06:12:37;;;;;;;1.88;1.40;;;;;;;30.75;33.15;95816.16;4982017;28;20271;-78
2022/08/01 06:15:04;;;;;;;1.83;1.50;;;;;;;31.38;31.65;95812.06;4998509;28;20243;-79
2022/08/01 06:17:29;;;;;;;1.52;1.42;;;;;;;30.47;33.37;95810.19;4970239;28;20207;-80
2022/08/01 06:19:55;;;;;;;1.42;1.33;;;;;;;29.18;35.40;95807.31;4966218;28;20180;-79
2022/08/01 06:22:21;;;;;;;1.40;1.30;;;;;;;27.85;38.75;95812.50;4982980;28;20208;-79
2022/08/01 06:24:46;;;;;;;2.97;1.55;;;;;;;28.07;37.88;95805.25;4965941;28;20181;-79
2022/08/01 06:27:11;;;;;;;3.65;1.48;;;;;;;29.70;35.08;95816.44;4951841;28;20214;-79
2022/08/01 06:29:36;;;;;;;1.85;1.60;;;;;;;30.29;33.97;95814.19;4964511;28;20193;-78
2022/08/01 06:32:02;;;;;;;2.67;1.20;;;;;;;31.31;32.22;95816.13;4949265;28;20191;-79
2022/08/01 06:34:27;;;;;;;1.40;1.30;;;;;;;31.99;30.47;95816.44;4983144;28;20274;-78
2022/08/01 06:36:52;;;;;;;2.55;1.42;;;;;;;31.66;31.80;95824.06;4980441;28;20197;-79
2022/08/01 06:39:18;;;;;;;2.97;1.50;;;;;;;31.74;31.48;95818.13;4966601;28;20199;-78
2022/08/01 06:41:45;;;;;;;2.10;1.13;;;;;;;32.35;30.38;95825.94;4982816;28;20661;-80
2022/08/01 06:44:11;;;;;;;1.50;1.40;;;;;;;32.88;29.29;95818.03;4948460;28;20711;-79
2022/08/01 06:46:37;;;;;;;2.33;1.40;;;;;;;32.33;30.37;95836.13;4966018;28;20179;-79
2022/08/01 06:49:02;;;;;;;2.08;1.63;;;;;;;32.16;30.86;95827.63;4981786;28;20211;-78
2022/08/01 06:51:27;;;;;;;2.05;1.50;;;;;;;31.93;31.04;95830.97;4964307;28;20227;-78
2022/08/01 06:53:53;;;;;;;2.53;1.52;;;;;;;32.22;30.59;95834.56;4966221;28;20219;-79
2022/08/01 06:56:18;;;;;;;2.05;1.30;;;;;;;32.27;30.74;95833.75;4958286;28;20196;-79
2022/08/01 06:58:44;;;;;;;1.60;1.50;;;;;;;31.92;31.21;95840.09;4988140;28;20199;-78
2022/08/01 07:01:09;;;;;;;4.90;2.17;;;;;;;30.84;32.70;95830.63;4958482;28;20242;-79
2022/08/01 07:03:35;;;;;;;1.80;1.50;;;;;;;31.08;33.08;95830.88;4981244;28;20212;-78
2022/08/01 07:06:00;;;;;;;1.60;1.48;;;;;;;31.06;32.30;95827.66;4952698;28;20185;-78
2022/08/01 07:08:25;;;;;;;2.08;1.80;;;;;;;29.33;35.33;95828.78;4978615;28;20191;-80
2022/08/01 07:10:50;;;;;;;1.88;1.27;;;;;;;29.19;35.44;95829.50;4986079;28;20187;-80
2022/08/01 07:13:20;;;;;;;1.65;1.55;;;;;;;29.92;34.85;95830.41;4986765;28;20223;-79
2022/08/01 07:15:46;;;;;;;1.80;1.70;;;;;;;30.26;34.45;95828.13;4970656;28;20291;-78
2022/08/01 07:18:11;;;;;;;1.83;1.60;;;;;;;29.17;35.65;95824.41;4968749;28;20229;-79
2022/08/01 07:20:37;;;;;;;2.25;1.60;;;;;;;30.23;34.25;95819.84;4953261;28;20248;-80
2022/08/01 07:23:03;;;;;;;2.72;1.60;;;;;;;30.50;33.71;95831.13;4970587;28;20204;-79
2022/08/01 07:25:28;;;;;;;2.28;1.60;;;;;;;30.53;33.37;95825.22;4960338;28;20203;-78
2022/08/01 07:27:53;;;;;;;2.35;1.73;;;;;;;31.13;32.36;95823.63;4968450;28;20667;-79
2022/08/01 07:30:18;;;;;;;2.20;1.85;;;;;;;31.22;32.13;95824.72;4978424;28;20192;-77
2022/08/01 07:32:44;;;;;;;2.05;1.70;;;;;;;30.70;33.15;95825.00;4951505;28;20201;-78
2022/08/01 07:35:09;;;;;;;2.28;1.80;;;;;;;29.55;35.04;95823.31;4968913;28;20179;-80
2022/08/01 07:37:34;;;;;;;2.17;1.95;;;;;;;28.77;36.61;95830.22;4968499;28;20179;-79
2022/08/01 07:40:00;;;;;;;1.65;1.52;;;;;;;28.07;38.37;95823.13;4970467;28;20216;-78
2022/08/01 07:42:25;;;;;;;3.75;2.22;;;;;;;28.55;37.41;95813.50;4970167;28;20223;-80
2022/08/01 07:44:50;;;;;;;2.95;1.98;;;;;;;29.20;36.24;95809.72;4977656;28;20179;-79
2022/08/01 07:47:16;;;;;;;4.07;1.80;;;;;;;29.16;36.19;95825.47;4985026;28;20192;-78
2022/08/01 07:49:41;;;;;;;2.28;1.90;;;;;;;28.84;36.73;95814.78;4970176;28;20230;-79
2022/08/01 07:52:07;;;;;;;2.17;1.55;;;;;;;29.53;35.72;95820.09;4968990;28;20818;-80
2022/08/01 07:54:32;;;;;;;7.30;1.95;;;;;;;29.64;34.78;95815.59;4966841;28;20196;-79
2022/08/01 07:56:58;;;;;;;3.20;2.15;;;;;;;29.27;35.73;95812.97;4970099;28;20197;-78
2022/08/01 07:59:23;;;;;;;7.22;2.10;;;;;;;27.97;38.33;95820.38;4976970;28;20188;-79
2022/08/01 08:01:50;;;;;;;3.08;1.88;;;;;;;27.41;39.53;95814.34;4986064;28;20216;-78
2022/08/01 08:04:16;;;;;;;2.67;1.95;;;;;;;27.01;40.50;95815.34;4969139;28;20230;-80
2022/08/01 08:06:41;;;;;;;6.68;2.10;;;;;;;26.41;42.03;95813.31;4968420;28;20195;-79
2022/08/01 08:09:06;;;;;;;2.45;2.25;;;;;;;26.35;42.61;95808.94;4951849;28;20224;-79
2022/08/01 08:11:32;;;;;;;3.63;2.67;;;;;;;25.43;45.24;95809.81;4970194;28;20192;-80
2022/08/01 08:13:57;;;;;;;2.53;2.33;;;;;;;26.19;43.70;95810.50;4976449;28;20205;-80
2022/08/01 08:16:22;;;;;;;4.68;2.67;;;;;;;26.01;43.90;95811.53;4969472;28;20810;-78
2022/08/01 08:18:48;;;;;;;2.78;2.25;;;;;;;26.50;42.61;95807.38;4970243;28;20195;-79
2022/08/01 08:21:13;;;;;;;2.63;2.25;;;;;;;26.27;42.86;95805.59;4987707;28;20207;-79
2022/08/01 08:26:23;;;;;;;3.92;3.05;;;;;;;26.09;43.20;95803.16;4985708;28;20254;-78
2022/08/01 08:28:48;;;;;;;3.58;2.80;;;;;;;26.19;43.77;95811.31;4951609;28;20227;-79
2022/08/01 08:31:14;;;;;;;3.28;2.70;;;;;;;25.29;45.62;95797.81;4970032;28;20195;-79
2022/08/01 08:33:39;;;;;;;3.45;2.40;;;;;;;25.81;44.82;95795.19;4977111;28;20562;-79
2022/08/01 08:36:04;;;;;;;2.88;2.67;;;;;;;25.76;44.78;95806.53;4966422;28;20196;-79
2022/08/01 08:38:30;;;;;;;3.58;2.80;;;;;;;25.60;45.68;95800.06;4978230;28;20179;-78
2022/08/01 08:40:55;;;;;;;3.97;2.72;;;;;;;25.58;45.18;95794.16;4966010;28;20204;-79
2022/08/01 08:43:21;;;;;;;3.10;2.60;;;;;;;25.94;44.95;95800.19;4962669;28;20221;-79
2022/08/01 08:45:46;;;;;;;3.78;2.78;;;;;;;26.17;44.30;95796.66;4969426;28;20278;-79
2022/08/01 08:48:13;;;;;;;3.47;3.17;;;;;;;26.25;44.47;95809.56;4953531;28;20188;-78
2022/08/01 08:50:38;;;;;;;3.50;3.05;;;;;;;26.29;43.26;95804.56;4975991;28;20225;-79
2022/08/01 08:53:04;;;;;;;3.40;2.53;;;;;;;26.46;43.01;95794.75;4967331;28;20212;-78
2022/08/01 08:55:29;;;;;;;4.53;4.03;;;;;;;25.79;44.19;95799.91;4952665;28;20287;-79
2022/08/01 08:57:55;;;;;;;3.25;2.97;;;;;;;25.93;45.08;95803.91;4966908;28;20192;-79
2022/08/01 09:00:20;;;;;;;4.68;3.33;;;;;;;26.34;43.87;95802.00;4966989;28;20212;-77
2022/08/01 09:02:55;;;;;;;5.95;3.47;;;;;;;26.30;44.42;95796.31;4976141;28;20687;-78
2022/08/01 09:05:25;;;;;;;2.58;2.38;;;;;;;26.50;42.53;95801.22;4968851;28;20598;-79
2022/08/01 09:07:51;;;;;;;3.20;2.90;;;;;;;26.88;42.54;95803.16;4982992;28;20622;-79
2022/08/01 09:10:16;;;;;;;3.67;2.75;;;;;;;26.40;43.60;95807.19;4986536;28;20188;-79
2022/08/01 09:13:02;;;;;;;3.15;2.85;;;;;;;26.39;43.87;95802.09;4986459;28;20212;-79
2022/08/01 09:15:49;;;;;;;3.30;3.00;;;;;;;26.38;43.69;95805.81;4959742;28;20184;-80
2022/08/01 09:18:34;;;;;;;4.13;2.88;;;;;;;26.25;43.61;95807.72;4985367;28;20187;-79
2022/08/01 09:21:05;;;;;;;3.10;2.88;;;;;;;26.24;44.03;95824.72;4969270;28;20211;-79
2022/08/01 09:23:38;;;;;;;4.18;3.30;;;;;;;26.13;44.14;95817.59;4986484;28;20218;-79
2022/08/01 09:26:04;;;;;;;2.90;2.70;;;;;;;26.33;43.49;95819.81;4977373;28;20262;-79
2022/08/01 09:28:30;;;;;;;3.08;2.88;;;;;;;26.22;43.75;95826.00;4958868;28;20208;-79
2022/08/01 09:30:56;;;;;;;3.47;3.17;;;;;;;26.16;44.22;95817.13;4967399;28;20184;-78
2022/08/01 09:33:22;;;;;;;3.58;3.28;;;;;;;26.09;43.68;95815.66;4977120;28;20598;-79
2022/08/01 09:35:54;;;;;;;3.97;2.97;;;;;;;26.04;44.05;95819.00;4964033;28;20235;-79
2022/08/01 09:38:22;;;;;;;3.08;2.85;;;;;;;26.06;43.81;95821.44;4965768;28;20188;-78
2022/08/01 09:40:59;;;;;;;3.95;2.95;;;;;;;26.19;43.95;95821.16;4975902;28;20212;-79
2022/08/01 09:43:29;;;;;;;3.33;3.03;;;;;;;25.72;44.74;95816.03;4976982;28;20206;-79
2022/08/01 09:45:58;;;;;;;3.47;3.17;;;;;;;26.29;44.18;95815.22;4968652;28;20207;-79
2022/08/01 09:48:23;;;;;;;3.90;2.72;;;;;;;26.64;42.65;95815.84;4968552;28;20187;-78
2022/08/01 09:50:50;;;;;;;3.42;2.72;;;;;;;26.49;43.25;95815.56;4965901;28;20271;-79
2022/08/01 09:53:16;;;;;;;2.58;2.38;;;;;;;26.47;42.52;95813.16;4968153;28;20294;-78
2022/08/01 09:55:42;;;;;;;2.80;2.60;;;;;;;26.59;42.88;95813.06;4966807;28;20577;-78
2022/08/01 09:58:08;;;;;;;2.90;2.53;;;;;;;26.71;43.43;95807.69;4965038;28;20224;-79
2022/08/01 10:00:34;;;;;;;3.28;2.58;;;;;;;26.53;43.31;95808.75;4974991;28;20207;-78
2022/08/01 10:03:19;;;;;;;2.75;2.55;;;;;;;26.24;43.87;95822.06;4968024;28;20212;-79
2022/08/01 10:05:44;;;;;;;3.05;2.38;;;;;;;26.41;43.68;95811.44;4973995;28;20187;-79
2022/08/01 10:08:10;;;;;;;2.75;2.40;;;;;;;26.52;43.59;95809.78;4949828;28;20188;-78
2022/08/01 10:10:35;;;;;;;2.80;2.60;;;;;;;26.36;43.69;95821.19;4969543;28;20184;-79
2022/08/01 10:13:01;;;;;;;2.67;2.45;;;;;;;26.27;43.62;95813.59;4950872;28;20298;-79
2022/08/01 10:15:27;;;;;;;2.80;2.60;;;;;;;26.03;43.67;95814.75;4967946;28;20283;-78
2022/08/01 10:17:54;;;;;;;3.60;2.60;;;;;;;26.17;42.97;95813.41;4965019;28;20223;-79
2022/08/01 10:20:24;;;;;;;3.05;2.50;;;;;;;25.93;44.19;95815.38;4974062;28;20239;-78
2022/08/01 10:22:52;;;;;;;3.15;2.45;;;;;;;26.16;43.78;95817.13;4976781;28;20203;-79
2022/08/01 10:25:17;;;;;;;3.05;2.80;;;;;;;26.19;42.72;95811.31;4966615;28;20536;-79
2022/08/01 10:27:46;;;;;;;2.63;2.42;;;;;;;26.56;41.90;95807.44;4967449;28;20199;-79
2022/08/01 10:30:12;;;;;;;6.80;2.67;;;;;;;26.55;42.15;95803.97;4977108;28;20180;-79
2022/08/01 10:32:38;;;;;;;3.78;2.60;;;;;;;27.27;40.24;95801.34;4984898;28;20255;-79
2022/08/01 10:35:05;;;;;;;3.13;2.70;;;;;;;27.15;40.84;95795.31;4967354;28;20180;-79
2022/08/01 10:37:30;;;;;;;3.03;2.53;;;;;;;26.85;40.97;95797.50;4948567;28;20227;-78
2022/08/01 10:39:56;;;;;;;3.50;2.50;;;;;;;26.47;41.76;95794.53;4988559;28;20677;-79
2022/08/01 10:42:21;;;;;;;2.95;2.58;;;;;;;26.47;42.32;95799.03;4971123;28;20220;-79
2022/08/01 10:44:48;;;;;;;2.80;2.42;;;;;;;26.66;41.60;95799.59;4968695;28;20232;-79
2022/08/01 10:47:17;;;;;;;3.72;3.05;;;;;;;26.35;42.50;95792.97;4971699;28;20198;-78
2022/08/01 10:49:51;;;;;;;5.68;2.70;;;;;;;26.67;41.83;95796.69;4988678;28;20230;-79
2022/08/01 10:52:17;;;;;;;7.13;3.40;;;;;;;26.60;42.01;95789.94;4971407;28;20187;-78
2022/08/01 10:54:43;;;;;;;4.10;2.70;;;;;;;26.30;41.89;95790.19;4970548;28;20866;-79
2022/08/01 10:57:10;;;;;;;16.50;4.45;;;;;;;26.19;41.83;95794.53;4971838;28;20270;-79
2022/08/01 10:59:39;;;;;;;6.10;3.08;;;;;;;26.24;41.83;95792.78;4969982;28;20264;-77
2022/08/01 11:02:05;;;;;;;3.35;2.80;;;;;;;26.51;42.01;95795.66;4976728;28;20209;-78
2022/08/01 11:04:40;;;;;;;3.15;2.50;;;;;;;26.88;41.38;95786.38;4975841;28;20192;-79
2022/08/01 11:07:07;;;;;;;4.38;2.95;;;;;;;27.37;39.79;95796.13;4980477;28;20202;-79
2022/08/01 11:09:43;;;;;;;2.60;2.40;;;;;;;27.69;39.08;95789.38;4963523;28;20183;-78
2022/08/01 11:12:10;;;;;;;4.30;2.95;;;;;;;27.91;38.56;95788.25;4980347;28;20262;-79
2022/08/01 11:15:00;;;;;;;4.88;3.05;;;;;;;27.83;38.20;95778.06;4974891;28;20195;-79
2022/08/01 11:17:47;;;;;;;17.42;4.30;;;;;;;28.13;38.26;95790.91;4986032;28;20188;-79
2022/08/01 11:20:29;;;;;;;11.75;3.30;;;;;;;28.04;37.48;95779.06;4960276;28;20588;-79
2022/08/01 11:23:01;;;;;;;4.85;2.38;;;;;;;27.99;37.88;95786.22;4975425;28;20622;-80
2022/08/01 11:25:35;;;;;;;5.18;2.40;;;;;;;27.80;39.25;95783.88;4987282;28;20223;-79
2022/08/01 11:28:23;;;;;;;3.55;2.50;;;;;;;27.30;40.99;95784.06;4986725;28;20206;-79
2022/08/01 11:31:08;;;;;;;2.90;2.70;;;;;;;26.83;41.68;95779.91;4970789;28;20180;-79
2022/08/01 11:33:44;;;;;;;4.07;2.53;;;;;;;26.63;42.20;95779.59;4974990;28;20227;-78
2022/08/01 11:36:12;;;;;;;3.65;2.60;;;;;;;27.05;41.60;95776.53;4973025;28;20713;-78
2022/08/01 11:38:46;;;;;;;2.75;2.55;;;;;;;27.15;40.84;95773.19;4991953;28;20710;-79
2022/08/01 11:41:23;;;;;;;4.50;2.88;;;;;;;27.28;40.00;95764.81;4952498;28;20623;-80